sensor_id;sensor_type;location;lat;lon;timestamp;P1;durP1;ratioP1;P2;durP2;ratioP2
72127;SDS011;60000;51.030;7.024;2023-03-16T00:00:48;6.60;;;1.93;;
72127;SDS011;60000;51.030;7.024;2023-03-16T00:03:13;6.90;;;2.00;;
72127;SDS011;60000;51.030;7.024;2023-03-16T00:05:45;7.78;;;2.35;;
72127;SDS011;60000;51.030;7.024;2023-03-16T00:08:12;6.40;;;1.85;;
72127;SDS011;60000;51.030;7.024;2023-03-16T00:10:38;9.63;;;2.50;;
72127;SDS011;60000;51.030;7.024;2023-03-16T00:13:03;7.20;;;2.15;;
72127;SDS011;60000;51.030;7.024;2023-03-16T00:15:28;7.77;;;2.30;;
72127;SDS011;60000;51.030;7.024;2023-03-16T00:17:54;6.77;;;2.17;;
72127;SDS011;60000;51.030;7.024;2023-03-16T00:20:19;6.93;;;2.30;;
72127;SDS011;60000;51.030;7.024;2023-03-16T00:22:45;7.30;;;2.40;;
72127;SDS011;60000;51.030;7.024;2023-03-16T00:25:11;5.53;;;1.83;;
72127;SDS011;60000;51.030;7.024;2023-03-16T00:27:38;7.70;;;2.33;;
72127;SDS011;60000;51.030;7.024;2023-03-16T00:30:05;7.05;;;2.40;;
72127;SDS011;60000;51.030;7.024;2023-03-16T00:32:33;7.47;;;2.17;;
72127;SDS011;60000;51.030;7.024;2023-03-16T00:35:00;5.85;;;2.00;;
72127;SDS011;60000;51.030;7.024;2023-03-16T00:37:27;6.63;;;2.53;;
72127;SDS011;60000;51.030;7.024;2023-03-16T00:39:53;6.87;;;2.07;;
72127;SDS011;60000;51.030;7.024;2023-03-16T00:42:23;5.05;;;2.03;;
72127;SDS011;60000;51.030;7.024;2023-03-16T00:44:57;7.15;;;2.22;;
72127;SDS011;60000;51.030;7.024;2023-03-16T00:47:24;8.27;;;2.40;;
72127;SDS011;60000;51.030;7.024;2023-03-16T00:49:52;9.25;;;2.00;;
72127;SDS011;60000;51.030;7.024;2023-03-16T00:52:17;7.83;;;2.10;;
72127;SDS011;60000;51.030;7.024;2023-03-16T00:54:43;7.57;;;2.40;;
72127;SDS011;60000;51.030;7.024;2023-03-16T00:57:11;7.65;;;2.42;;
72127;SDS011;60000;51.030;7.024;2023-03-16T00:59:38;6.43;;;2.03;;
72127;SDS011;60000;51.030;7.024;2023-03-16T01:02:05;7.47;;;2.23;;
72127;SDS011;60000;51.030;7.024;2023-03-16T01:04:31;6.15;;;2.20;;
72127;SDS011;60000;51.030;7.024;2023-03-16T01:06:58;6.90;;;2.47;;
72127;SDS011;60000;51.030;7.024;2023-03-16T01:09:23;6.63;;;2.42;;
72127;SDS011;60000;51.030;7.024;2023-03-16T01:11:49;5.50;;;2.10;;
72127;SDS011;60000;51.030;7.024;2023-03-16T01:14:18;8.63;;;1.87;;
72127;SDS011;60000;51.030;7.024;2023-03-16T01:16:43;6.25;;;2.20;;
72127;SDS011;60000;51.030;7.024;2023-03-16T01:19:09;6.15;;;1.75;;
72127;SDS011;60000;51.030;7.024;2023-03-16T01:21:36;6.53;;;1.80;;
72127;SDS011;60000;51.030;7.024;2023-03-16T01:24:02;9.07;;;2.58;;
72127;SDS011;60000;51.030;7.024;2023-03-16T01:26:28;7.57;;;2.00;;
72127;SDS011;60000;51.030;7.024;2023-03-16T01:28:54;6.63;;;1.97;;
72127;SDS011;60000;51.030;7.024;2023-03-16T01:31:19;8.23;;;2.00;;
72127;SDS011;60000;51.030;7.024;2023-03-16T01:33:44;8.50;;;1.97;;
72127;SDS011;60000;51.030;7.024;2023-03-16T01:36:11;6.93;;;2.00;;
72127;SDS011;60000;51.030;7.024;2023-03-16T01:38:38;6.35;;;2.20;;
72127;SDS011;60000;51.030;7.024;2023-03-16T01:41:04;5.57;;;1.80;;
72127;SDS011;60000;51.030;7.024;2023-03-16T01:43:30;5.95;;;1.65;;
72127;SDS011;60000;51.030;7.024;2023-03-16T01:48:32;7.37;;;2.03;;
72127;SDS011;60000;51.030;7.024;2023-03-16T01:51:04;6.15;;;1.80;;
72127;SDS011;60000;51.030;7.024;2023-03-16T01:53:57;7.97;;;2.00;;
72127;SDS011;60000;51.030;7.024;2023-03-16T01:56:28;5.97;;;2.00;;
72127;SDS011;60000;51.030;7.024;2023-03-16T01:58:59;6.65;;;2.47;;
72127;SDS011;60000;51.030;7.024;2023-03-16T02:01:29;5.73;;;1.90;;
72127;SDS011;60000;51.030;7.024;2023-03-16T02:03:56;7.75;;;1.85;;
72127;SDS011;60000;51.030;7.024;2023-03-16T02:06:28;5.60;;;1.90;;
72127;SDS011;60000;51.030;7.024;2023-03-16T02:08:54;6.17;;;1.73;;
72127;SDS011;60000;51.030;7.024;2023-03-16T02:11:21;5.57;;;1.60;;
72127;SDS011;60000;51.030;7.024;2023-03-16T02:13:47;6.50;;;1.63;;
72127;SDS011;60000;51.030;7.024;2023-03-16T02:16:13;7.30;;;1.97;;
72127;SDS011;60000;51.030;7.024;2023-03-16T02:18:43;8.18;;;1.80;;
72127;SDS011;60000;51.030;7.024;2023-03-16T02:23:37;6.63;;;1.73;;
72127;SDS011;60000;51.030;7.024;2023-03-16T02:29:16;6.05;;;1.77;;
72127;SDS011;60000;51.030;7.024;2023-03-16T02:31:52;6.40;;;1.95;;
72127;SDS011;60000;51.030;7.024;2023-03-16T02:34:18;6.53;;;1.80;;
72127;SDS011;60000;51.030;7.024;2023-03-16T02:36:44;6.75;;;1.70;;
72127;SDS011;60000;51.030;7.024;2023-03-16T02:39:11;7.60;;;1.53;;
72127;SDS011;60000;51.030;7.024;2023-03-16T02:41:37;4.97;;;1.50;;
72127;SDS011;60000;51.030;7.024;2023-03-16T02:46:39;5.97;;;1.90;;
72127;SDS011;60000;51.030;7.024;2023-03-16T02:49:14;5.53;;;1.83;;
72127;SDS011;60000;51.030;7.024;2023-03-16T02:51:43;6.47;;;1.65;;
72127;SDS011;60000;51.030;7.024;2023-03-16T02:54:09;6.63;;;1.85;;
72127;SDS011;60000;51.030;7.024;2023-03-16T02:56:35;7.37;;;1.80;;
72127;SDS011;60000;51.030;7.024;2023-03-16T02:59:00;4.70;;;1.60;;
72127;SDS011;60000;51.030;7.024;2023-03-16T03:01:25;6.67;;;1.90;;
72127;SDS011;60000;51.030;7.024;2023-03-16T03:03:51;8.93;;;2.00;;
72127;SDS011;60000;51.030;7.024;2023-03-16T03:06:16;6.77;;;2.00;;
72127;SDS011;60000;51.030;7.024;2023-03-16T03:08:42;5.93;;;1.53;;
72127;SDS011;60000;51.030;7.024;2023-03-16T03:11:07;7.18;;;1.60;;
72127;SDS011;60000;51.030;7.024;2023-03-16T03:13:33;5.70;;;1.97;;
72127;SDS011;60000;51.030;7.024;2023-03-16T03:15:58;5.32;;;1.80;;
72127;SDS011;60000;51.030;7.024;2023-03-16T03:18:24;5.03;;;1.87;;
72127;SDS011;60000;51.030;7.024;2023-03-16T03:20:49;5.70;;;1.73;;
72127;SDS011;60000;51.030;7.024;2023-03-16T03:23:15;5.80;;;1.60;;
72127;SDS011;60000;51.030;7.024;2023-03-16T03:25:41;5.65;;;1.63;;
72127;SDS011;60000;51.030;7.024;2023-03-16T03:28:06;6.30;;;1.63;;
72127;SDS011;60000;51.030;7.024;2023-03-16T03:30:32;7.97;;;2.45;;
72127;SDS011;60000;51.030;7.024;2023-03-16T03:32:57;6.40;;;1.77;;
72127;SDS011;60000;51.030;7.024;2023-03-16T03:35:23;4.60;;;1.57;;
72127;SDS011;60000;51.030;7.024;2023-03-16T03:37:48;6.20;;;1.50;;
72127;SDS011;60000;51.030;7.024;2023-03-16T03:40:15;5.78;;;1.90;;
72127;SDS011;60000;51.030;7.024;2023-03-16T03:42:42;6.65;;;1.60;;
72127;SDS011;60000;51.030;7.024;2023-03-16T03:45:08;8.43;;;1.90;;
72127;SDS011;60000;51.030;7.024;2023-03-16T03:47:36;6.82;;;1.85;;
72127;SDS011;60000;51.030;7.024;2023-03-16T03:50:01;7.43;;;2.10;;
72127;SDS011;60000;51.030;7.024;2023-03-16T03:52:27;6.18;;;1.70;;
72127;SDS011;60000;51.030;7.024;2023-03-16T03:54:52;7.37;;;1.70;;
72127;SDS011;60000;51.030;7.024;2023-03-16T03:57:18;6.33;;;1.73;;
72127;SDS011;60000;51.030;7.024;2023-03-16T03:59:43;5.50;;;1.57;;
72127;SDS011;60000;51.030;7.024;2023-03-16T04:02:09;6.10;;;1.63;;
72127;SDS011;60000;51.030;7.024;2023-03-16T04:04:35;5.50;;;1.50;;
72127;SDS011;60000;51.030;7.024;2023-03-16T04:07:00;5.70;;;1.80;;
72127;SDS011;60000;51.030;7.024;2023-03-16T04:09:26;7.00;;;1.95;;
72127;SDS011;60000;51.030;7.024;2023-03-16T04:11:51;5.70;;;2.00;;
72127;SDS011;60000;51.030;7.024;2023-03-16T04:14:16;4.93;;;1.60;;
72127;SDS011;60000;51.030;7.024;2023-03-16T04:16:42;5.50;;;1.80;;
72127;SDS011;60000;51.030;7.024;2023-03-16T04:19:08;5.15;;;1.38;;
72127;SDS011;60000;51.030;7.024;2023-03-16T04:21:35;5.32;;;1.60;;
72127;SDS011;60000;51.030;7.024;2023-03-16T04:24:00;4.93;;;1.65;;
72127;SDS011;60000;51.030;7.024;2023-03-16T04:26:29;5.70;;;1.80;;
72127;SDS011;60000;51.030;7.024;2023-03-16T04:28:54;5.57;;;1.90;;
72127;SDS011;60000;51.030;7.024;2023-03-16T04:31:19;7.53;;;1.87;;
72127;SDS011;60000;51.030;7.024;2023-03-16T04:33:45;6.93;;;2.30;;
72127;SDS011;60000;51.030;7.024;2023-03-16T04:36:10;5.87;;;1.90;;
72127;SDS011;60000;51.030;7.024;2023-03-16T04:38:36;5.93;;;1.97;;
72127;SDS011;60000;51.030;7.024;2023-03-16T04:41:02;6.43;;;1.77;;
72127;SDS011;60000;51.030;7.024;2023-03-16T04:43:28;6.63;;;2.03;;
72127;SDS011;60000;51.030;7.024;2023-03-16T04:45:58;11.75;;;2.33;;
72127;SDS011;60000;51.030;7.024;2023-03-16T04:48:24;7.57;;;2.13;;
72127;SDS011;60000;51.030;7.024;2023-03-16T04:50:49;6.37;;;1.70;;
72127;SDS011;60000;51.030;7.024;2023-03-16T04:53:15;7.32;;;1.85;;
72127;SDS011;60000;51.030;7.024;2023-03-16T04:55:40;8.10;;;2.20;;
72127;SDS011;60000;51.030;7.024;2023-03-16T04:58:06;7.57;;;2.10;;
72127;SDS011;60000;51.030;7.024;2023-03-16T05:00:32;5.50;;;1.80;;
72127;SDS011;60000;51.030;7.024;2023-03-16T05:02:57;6.65;;;1.95;;
72127;SDS011;60000;51.030;7.024;2023-03-16T05:05:23;9.37;;;2.23;;
72127;SDS011;60000;51.030;7.024;2023-03-16T05:07:48;5.87;;;2.47;;
72127;SDS011;60000;51.030;7.024;2023-03-16T05:10:15;8.15;;;2.30;;
72127;SDS011;60000;51.030;7.024;2023-03-16T05:12:42;6.85;;;1.88;;
72127;SDS011;60000;51.030;7.024;2023-03-16T05:15:08;6.70;;;2.27;;
72127;SDS011;60000;51.030;7.024;2023-03-16T05:17:33;6.78;;;2.15;;
72127;SDS011;60000;51.030;7.024;2023-03-16T05:19:59;6.40;;;2.00;;
72127;SDS011;60000;51.030;7.024;2023-03-16T05:22:24;8.57;;;2.17;;
72127;SDS011;60000;51.030;7.024;2023-03-16T05:24:50;6.60;;;2.50;;
72127;SDS011;60000;51.030;7.024;2023-03-16T05:27:15;7.20;;;2.10;;
72127;SDS011;60000;51.030;7.024;2023-03-16T05:29:41;7.40;;;2.30;;
72127;SDS011;60000;51.030;7.024;2023-03-16T05:32:10;6.20;;;2.28;;
72127;SDS011;60000;51.030;7.024;2023-03-16T05:34:36;8.80;;;2.53;;
72127;SDS011;60000;51.030;7.024;2023-03-16T05:37:01;6.17;;;2.30;;
72127;SDS011;60000;51.030;7.024;2023-03-16T05:39:26;7.28;;;2.55;;
72127;SDS011;60000;51.030;7.024;2023-03-16T05:41:52;7.23;;;2.70;;
72127;SDS011;60000;51.030;7.024;2023-03-16T05:44:19;7.15;;;2.40;;
72127;SDS011;60000;51.030;7.024;2023-03-16T05:46:44;8.53;;;2.60;;
72127;SDS011;60000;51.030;7.024;2023-03-16T05:49:09;7.43;;;2.63;;
72127;SDS011;60000;51.030;7.024;2023-03-16T05:51:36;9.73;;;2.70;;
72127;SDS011;60000;51.030;7.024;2023-03-16T05:54:02;8.67;;;2.20;;
72127;SDS011;60000;51.030;7.024;2023-03-16T05:56:27;7.07;;;2.63;;
72127;SDS011;60000;51.030;7.024;2023-03-16T05:58:54;8.43;;;2.60;;
72127;SDS011;60000;51.030;7.024;2023-03-16T06:01:20;8.05;;;3.00;;
72127;SDS011;60000;51.030;7.024;2023-03-16T06:03:47;7.53;;;2.70;;
72127;SDS011;60000;51.030;7.024;2023-03-16T06:06:16;7.05;;;2.53;;
72127;SDS011;60000;51.030;7.024;2023-03-16T06:08:42;6.82;;;2.70;;
72127;SDS011;60000;51.030;7.024;2023-03-16T06:11:07;7.10;;;2.90;;
72127;SDS011;60000;51.030;7.024;2023-03-16T06:13:33;7.37;;;2.70;;
72127;SDS011;60000;51.030;7.024;2023-03-16T06:15:59;7.28;;;2.65;;
72127;SDS011;60000;51.030;7.024;2023-03-16T06:18:25;7.65;;;2.40;;
72127;SDS011;60000;51.030;7.024;2023-03-16T06:20:50;8.90;;;2.67;;
72127;SDS011;60000;51.030;7.024;2023-03-16T06:23:16;8.03;;;2.60;;
72127;SDS011;60000;51.030;7.024;2023-03-16T06:25:45;6.70;;;2.90;;
72127;SDS011;60000;51.030;7.024;2023-03-16T06:28:11;6.13;;;2.40;;
72127;SDS011;60000;51.030;7.024;2023-03-16T06:30:37;8.93;;;2.50;;
72127;SDS011;60000;51.030;7.024;2023-03-16T06:33:03;5.85;;;2.50;;
72127;SDS011;60000;51.030;7.024;2023-03-16T06:35:28;6.50;;;2.43;;
72127;SDS011;60000;51.030;7.024;2023-03-16T06:37:54;7.13;;;2.67;;
72127;SDS011;60000;51.030;7.024;2023-03-16T06:40:19;7.30;;;2.67;;
72127;SDS011;60000;51.030;7.024;2023-03-16T06:42:45;10.20;;;2.73;;
72127;SDS011;60000;51.030;7.024;2023-03-16T06:45:10;7.40;;;2.60;;
72127;SDS011;60000;51.030;7.024;2023-03-16T06:47:36;7.50;;;2.60;;
72127;SDS011;60000;51.030;7.024;2023-03-16T06:50:01;8.43;;;2.80;;
72127;SDS011;60000;51.030;7.024;2023-03-16T06:52:27;7.30;;;2.60;;
72127;SDS011;60000;51.030;7.024;2023-03-16T06:54:53;8.90;;;2.27;;
72127;SDS011;60000;51.030;7.024;2023-03-16T06:57:18;7.10;;;2.50;;
72127;SDS011;60000;51.030;7.024;2023-03-16T06:59:44;8.35;;;2.50;;
72127;SDS011;60000;51.030;7.024;2023-03-16T07:02:10;10.50;;;2.87;;
72127;SDS011;60000;51.030;7.024;2023-03-16T07:04:37;7.53;;;2.75;;
72127;SDS011;60000;51.030;7.024;2023-03-16T07:07:03;8.17;;;2.57;;
72127;SDS011;60000;51.030;7.024;2023-03-16T07:09:28;6.93;;;2.63;;
72127;SDS011;60000;51.030;7.024;2023-03-16T07:11:54;6.93;;;2.97;;
72127;SDS011;60000;51.030;7.024;2023-03-16T07:14:19;8.80;;;2.70;;
72127;SDS011;60000;51.030;7.024;2023-03-16T07:16:47;8.55;;;2.70;;
72127;SDS011;60000;51.030;7.024;2023-03-16T07:19:12;9.00;;;2.75;;
72127;SDS011;60000;51.030;7.024;2023-03-16T07:21:38;7.33;;;2.63;;
72127;SDS011;60000;51.030;7.024;2023-03-16T07:24:04;7.90;;;3.03;;
72127;SDS011;60000;51.030;7.024;2023-03-16T07:26:31;7.57;;;2.97;;
72127;SDS011;60000;51.030;7.024;2023-03-16T07:28:57;9.48;;;3.05;;
72127;SDS011;60000;51.030;7.024;2023-03-16T07:31:22;7.40;;;2.87;;
72127;SDS011;60000;51.030;7.024;2023-03-16T07:33:48;7.53;;;2.80;;
72127;SDS011;60000;51.030;7.024;2023-03-16T07:36:13;7.13;;;2.77;;
72127;SDS011;60000;51.030;7.024;2023-03-16T07:38:39;8.70;;;2.93;;
72127;SDS011;60000;51.030;7.024;2023-03-16T07:41:05;8.35;;;2.67;;
72127;SDS011;60000;51.030;7.024;2023-03-16T07:43:31;9.30;;;3.03;;
72127;SDS011;60000;51.030;7.024;2023-03-16T07:45:56;8.50;;;2.87;;
72127;SDS011;60000;51.030;7.024;2023-03-16T07:48:21;7.57;;;3.13;;
72127;SDS011;60000;51.030;7.024;2023-03-16T07:50:47;8.37;;;3.30;;
72127;SDS011;60000;51.030;7.024;2023-03-16T07:53:13;7.85;;;3.22;;
72127;SDS011;60000;51.030;7.024;2023-03-16T07:55:40;8.20;;;3.03;;
72127;SDS011;60000;51.030;7.024;2023-03-16T07:58:10;7.60;;;3.35;;
72127;SDS011;60000;51.030;7.024;2023-03-16T08:00:35;8.40;;;3.13;;
72127;SDS011;60000;51.030;7.024;2023-03-16T08:03:01;7.53;;;2.95;;
72127;SDS011;60000;51.030;7.024;2023-03-16T08:05:27;9.00;;;2.85;;
72127;SDS011;60000;51.030;7.024;2023-03-16T08:07:53;8.77;;;3.20;;
72127;SDS011;60000;51.030;7.024;2023-03-16T08:10:20;10.73;;;3.35;;
72127;SDS011;60000;51.030;7.024;2023-03-16T08:12:45;9.07;;;3.40;;
72127;SDS011;60000;51.030;7.024;2023-03-16T08:15:11;7.90;;;3.45;;
72127;SDS011;60000;51.030;7.024;2023-03-16T08:17:36;7.90;;;2.97;;
72127;SDS011;60000;51.030;7.024;2023-03-16T08:20:05;7.72;;;3.13;;
72127;SDS011;60000;51.030;7.024;2023-03-16T08:22:34;8.13;;;3.40;;
72127;SDS011;60000;51.030;7.024;2023-03-16T08:25:00;7.97;;;3.60;;
72127;SDS011;60000;51.030;7.024;2023-03-16T08:27:30;9.00;;;3.22;;
72127;SDS011;60000;51.030;7.024;2023-03-16T08:29:56;10.02;;;3.47;;
72127;SDS011;60000;51.030;7.024;2023-03-16T08:32:22;8.73;;;3.40;;
72127;SDS011;60000;51.030;7.024;2023-03-16T08:34:47;7.22;;;3.05;;
72127;SDS011;60000;51.030;7.024;2023-03-16T08:37:13;6.68;;;2.90;;
72127;SDS011;60000;51.030;7.024;2023-03-16T08:39:40;8.90;;;3.73;;
72127;SDS011;60000;51.030;7.024;2023-03-16T08:42:06;10.93;;;3.90;;
72127;SDS011;60000;51.030;7.024;2023-03-16T08:44:32;8.00;;;3.05;;
72127;SDS011;60000;51.030;7.024;2023-03-16T08:46:57;7.37;;;3.37;;
72127;SDS011;60000;51.030;7.024;2023-03-16T08:49:23;8.82;;;3.28;;
72127;SDS011;60000;51.030;7.024;2023-03-16T08:51:49;9.05;;;3.50;;
72127;SDS011;60000;51.030;7.024;2023-03-16T08:54:15;7.30;;;3.42;;
72127;SDS011;60000;51.030;7.024;2023-03-16T08:56:41;10.98;;;4.10;;
72127;SDS011;60000;51.030;7.024;2023-03-16T08:59:07;8.17;;;2.90;;
72127;SDS011;60000;51.030;7.024;2023-03-16T09:01:33;9.23;;;3.53;;
72127;SDS011;60000;51.030;7.024;2023-03-16T09:03:58;6.80;;;3.20;;
72127;SDS011;60000;51.030;7.024;2023-03-16T09:06:24;7.90;;;3.40;;
72127;SDS011;60000;51.030;7.024;2023-03-16T09:08:50;8.97;;;3.47;;
72127;SDS011;60000;51.030;7.024;2023-03-16T09:11:16;8.18;;;3.58;;
72127;SDS011;60000;51.030;7.024;2023-03-16T09:13:43;6.70;;;2.80;;
72127;SDS011;60000;51.030;7.024;2023-03-16T09:16:09;8.15;;;3.50;;
72127;SDS011;60000;51.030;7.024;2023-03-16T09:18:36;9.25;;;3.88;;
72127;SDS011;60000;51.030;7.024;2023-03-16T09:21:02;7.37;;;3.63;;
72127;SDS011;60000;51.030;7.024;2023-03-16T09:23:29;7.35;;;3.25;;
72127;SDS011;60000;51.030;7.024;2023-03-16T09:25:59;9.57;;;3.70;;
72127;SDS011;60000;51.030;7.024;2023-03-16T09:28:29;8.70;;;3.70;;
72127;SDS011;60000;51.030;7.024;2023-03-16T09:30:56;8.38;;;3.40;;
72127;SDS011;60000;51.030;7.024;2023-03-16T09:33:22;8.27;;;3.50;;
72127;SDS011;60000;51.030;7.024;2023-03-16T09:35:49;8.83;;;3.23;;
72127;SDS011;60000;51.030;7.024;2023-03-16T09:38:16;9.27;;;2.97;;
72127;SDS011;60000;51.030;7.024;2023-03-16T09:40:43;7.90;;;3.42;;
72127;SDS011;60000;51.030;7.024;2023-03-16T09:43:17;7.95;;;3.30;;
72127;SDS011;60000;51.030;7.024;2023-03-16T09:46:13;6.90;;;3.08;;
72127;SDS011;60000;51.030;7.024;2023-03-16T09:49:03;8.10;;;3.00;;
72127;SDS011;60000;51.030;7.024;2023-03-16T09:54:01;7.38;;;3.08;;
72127;SDS011;60000;51.030;7.024;2023-03-16T09:56:34;8.20;;;3.15;;
72127;SDS011;60000;51.030;7.024;2023-03-16T09:59:13;8.50;;;3.60;;
72127;SDS011;60000;51.030;7.024;2023-03-16T10:02:00;6.57;;;3.08;;
72127;SDS011;60000;51.030;7.024;2023-03-16T10:04:47;8.27;;;3.22;;
72127;SDS011;60000;51.030;7.024;2023-03-16T10:07:41;7.18;;;2.80;;
72127;SDS011;60000;51.030;7.024;2023-03-16T10:10:19;7.55;;;3.15;;
72127;SDS011;60000;51.030;7.024;2023-03-16T10:12:56;7.38;;;2.92;;
72127;SDS011;60000;51.030;7.024;2023-03-16T10:15:24;7.07;;;2.90;;
72127;SDS011;60000;51.030;7.024;2023-03-16T10:17:58;8.95;;;3.13;;
72127;SDS011;60000;51.030;7.024;2023-03-16T10:20:27;7.15;;;2.67;;
72127;SDS011;60000;51.030;7.024;2023-03-16T10:22:57;7.70;;;3.22;;
72127;SDS011;60000;51.030;7.024;2023-03-16T10:25:32;6.80;;;2.97;;
72127;SDS011;60000;51.030;7.024;2023-03-16T10:28:03;6.93;;;3.20;;
72127;SDS011;60000;51.030;7.024;2023-03-16T10:30:32;9.13;;;2.85;;
72127;SDS011;60000;51.030;7.024;2023-03-16T10:33:01;7.60;;;2.40;;
72127;SDS011;60000;51.030;7.024;2023-03-16T10:35:43;7.43;;;2.80;;
72127;SDS011;60000;51.030;7.024;2023-03-16T10:38:32;9.32;;;2.90;;
72127;SDS011;60000;51.030;7.024;2023-03-16T10:43:44;6.93;;;2.78;;
72127;SDS011;60000;51.030;7.024;2023-03-16T10:46:11;7.20;;;2.77;;
72127;SDS011;60000;51.030;7.024;2023-03-16T10:48:37;7.68;;;2.78;;
72127;SDS011;60000;51.030;7.024;2023-03-16T10:51:06;8.13;;;3.13;;
72127;SDS011;60000;51.030;7.024;2023-03-16T10:53:37;6.18;;;2.35;;
72127;SDS011;60000;51.030;7.024;2023-03-16T10:56:11;7.68;;;2.67;;
72127;SDS011;60000;51.030;7.024;2023-03-16T10:58:44;7.70;;;2.97;;
72127;SDS011;60000;51.030;7.024;2023-03-16T11:01:31;9.10;;;3.45;;
72127;SDS011;60000;51.030;7.024;2023-03-16T11:03:56;6.97;;;2.72;;
72127;SDS011;60000;51.030;7.024;2023-03-16T11:06:23;6.93;;;2.78;;
72127;SDS011;60000;51.030;7.024;2023-03-16T11:09:00;6.80;;;3.10;;
72127;SDS011;60000;51.030;7.024;2023-03-16T11:11:33;8.02;;;3.03;;
72127;SDS011;60000;51.030;7.024;2023-03-16T11:14:00;8.68;;;2.97;;
72127;SDS011;60000;51.030;7.024;2023-03-16T11:19:34;10.20;;;2.75;;
72127;SDS011;60000;51.030;7.024;2023-03-16T11:22:15;6.43;;;2.63;;
72127;SDS011;60000;51.030;7.024;2023-03-16T11:27:25;7.15;;;2.63;;
72127;SDS011;60000;51.030;7.024;2023-03-16T11:32:50;7.10;;;2.60;;
72127;SDS011;60000;51.030;7.024;2023-03-16T11:35:18;7.25;;;2.85;;
72127;SDS011;60000;51.030;7.024;2023-03-16T11:43:17;6.13;;;2.40;;
72127;SDS011;60000;51.030;7.024;2023-03-16T11:46:22;6.72;;;2.70;;
72127;SDS011;60000;51.030;7.024;2023-03-16T11:52:11;7.65;;;2.30;;
72127;SDS011;60000;51.030;7.024;2023-03-16T12:03:15;7.55;;;2.65;;
72127;SDS011;60000;51.030;7.024;2023-03-16T12:06:13;9.18;;;2.40;;
72127;SDS011;60000;51.030;7.024;2023-03-16T12:19:29;6.38;;;2.30;;
72127;SDS011;60000;51.030;7.024;2023-03-16T12:24:53;6.43;;;2.17;;
72127;SDS011;60000;51.030;7.024;2023-03-16T12:27:20;5.32;;;1.85;;
72127;SDS011;60000;51.030;7.024;2023-03-16T12:32:32;6.93;;;2.10;;
72127;SDS011;60000;51.030;7.024;2023-03-16T12:35:12;6.25;;;2.03;;
72127;SDS011;60000;51.030;7.024;2023-03-16T12:37:48;4.28;;;1.60;;
72127;SDS011;60000;51.030;7.024;2023-03-16T12:46:25;7.13;;;2.03;;
72127;SDS011;60000;51.030;7.024;2023-03-16T12:49:04;6.65;;;1.95;;
72127;SDS011;60000;51.030;7.024;2023-03-16T12:51:35;6.78;;;1.77;;
72127;SDS011;60000;51.030;7.024;2023-03-16T12:54:02;5.15;;;1.80;;
72127;SDS011;60000;51.030;7.024;2023-03-16T12:56:30;5.47;;;1.90;;
72127;SDS011;60000;51.030;7.024;2023-03-16T12:58:58;6.63;;;1.80;;
72127;SDS011;60000;51.030;7.024;2023-03-16T13:01:27;4.05;;;1.70;;
72127;SDS011;60000;51.030;7.024;2023-03-16T13:04:02;5.55;;;1.73;;
72127;SDS011;60000;51.030;7.024;2023-03-16T13:06:34;5.85;;;1.60;;
72127;SDS011;60000;51.030;7.024;2023-03-16T13:09:01;4.35;;;1.65;;
72127;SDS011;60000;51.030;7.024;2023-03-16T13:11:28;6.10;;;1.90;;
72127;SDS011;60000;51.030;7.024;2023-03-16T13:14:06;5.43;;;2.03;;
72127;SDS011;60000;51.030;7.024;2023-03-16T13:16:36;4.53;;;1.70;;
72127;SDS011;60000;51.030;7.024;2023-03-16T13:19:16;6.85;;;1.83;;
72127;SDS011;60000;51.030;7.024;2023-03-16T13:21:58;4.75;;;1.80;;
72127;SDS011;60000;51.030;7.024;2023-03-16T13:24:35;4.33;;;1.63;;
72127;SDS011;60000;51.030;7.024;2023-03-16T13:27:05;5.40;;;1.70;;
72127;SDS011;60000;51.030;7.024;2023-03-16T13:30:00;6.07;;;1.98;;
72127;SDS011;60000;51.030;7.024;2023-03-16T13:32:31;5.13;;;1.42;;
72127;SDS011;60000;51.030;7.024;2023-03-16T13:34:58;4.60;;;1.75;;
72127;SDS011;60000;51.030;7.024;2023-03-16T13:37:26;5.53;;;1.53;;
72127;SDS011;60000;51.030;7.024;2023-03-16T13:39:57;6.50;;;1.80;;
72127;SDS011;60000;51.030;7.024;2023-03-16T13:42:24;5.85;;;2.05;;
72127;SDS011;60000;51.030;7.024;2023-03-16T13:44:53;6.78;;;1.90;;
72127;SDS011;60000;51.030;7.024;2023-03-16T13:47:20;10.32;;;1.90;;
72127;SDS011;60000;51.030;7.024;2023-03-16T13:49:50;5.07;;;1.63;;
72127;SDS011;60000;51.030;7.024;2023-03-16T13:52:26;5.80;;;2.00;;
72127;SDS011;60000;51.030;7.024;2023-03-16T13:55:05;4.50;;;1.60;;
72127;SDS011;60000;51.030;7.024;2023-03-16T13:57:39;5.60;;;1.77;;
72127;SDS011;60000;51.030;7.024;2023-03-16T14:00:12;5.60;;;1.90;;
72127;SDS011;60000;51.030;7.024;2023-03-16T14:02:54;5.28;;;1.80;;
72127;SDS011;60000;51.030;7.024;2023-03-16T14:05:22;4.40;;;1.73;;
72127;SDS011;60000;51.030;7.024;2023-03-16T14:07:56;3.90;;;1.70;;
72127;SDS011;60000;51.030;7.024;2023-03-16T14:10:26;4.85;;;1.67;;
72127;SDS011;60000;51.030;7.024;2023-03-16T14:13:05;4.18;;;1.48;;
72127;SDS011;60000;51.030;7.024;2023-03-16T14:15:54;4.25;;;1.60;;
72127;SDS011;60000;51.030;7.024;2023-03-16T14:18:23;5.30;;;1.60;;
72127;SDS011;60000;51.030;7.024;2023-03-16T14:21:04;6.45;;;1.80;;
72127;SDS011;60000;51.030;7.024;2023-03-16T14:23:33;4.82;;;1.83;;
72127;SDS011;60000;51.030;7.024;2023-03-16T14:26:05;5.13;;;1.73;;
72127;SDS011;60000;51.030;7.024;2023-03-16T14:28:36;4.03;;;1.70;;
72127;SDS011;60000;51.030;7.024;2023-03-16T14:31:07;4.63;;;2.00;;
72127;SDS011;60000;51.030;7.024;2023-03-16T14:33:35;4.75;;;1.80;;
72127;SDS011;60000;51.030;7.024;2023-03-16T14:36:21;5.18;;;1.80;;
72127;SDS011;60000;51.030;7.024;2023-03-16T14:39:07;5.82;;;1.92;;
72127;SDS011;60000;51.030;7.024;2023-03-16T14:41:35;4.55;;;1.80;;
72127;SDS011;60000;51.030;7.024;2023-03-16T14:44:02;4.70;;;1.80;;
72127;SDS011;60000;51.030;7.024;2023-03-16T14:46:32;5.75;;;1.50;;
72127;SDS011;60000;51.030;7.024;2023-03-16T14:49:02;6.13;;;1.77;;
72127;SDS011;60000;51.030;7.024;2023-03-16T14:51:36;3.67;;;1.48;;
72127;SDS011;60000;51.030;7.024;2023-03-16T14:54:07;4.43;;;1.73;;
72127;SDS011;60000;51.030;7.024;2023-03-16T14:56:37;5.30;;;1.65;;
72127;SDS011;60000;51.030;7.024;2023-03-16T14:59:03;5.73;;;1.80;;
72127;SDS011;60000;51.030;7.024;2023-03-16T15:01:28;4.85;;;1.50;;
72127;SDS011;60000;51.030;7.024;2023-03-16T15:03:53;4.23;;;1.33;;
72127;SDS011;60000;51.030;7.024;2023-03-16T15:06:19;5.33;;;1.40;;
72127;SDS011;60000;51.030;7.024;2023-03-16T15:08:45;4.22;;;1.55;;
72127;SDS011;60000;51.030;7.024;2023-03-16T15:11:11;5.68;;;1.80;;
72127;SDS011;60000;51.030;7.024;2023-03-16T15:13:37;4.70;;;1.70;;
72127;SDS011;60000;51.030;7.024;2023-03-16T15:16:05;5.28;;;1.70;;
72127;SDS011;60000;51.030;7.024;2023-03-16T15:18:35;5.05;;;1.70;;
72127;SDS011;60000;51.030;7.024;2023-03-16T15:21:01;5.90;;;1.65;;
72127;SDS011;60000;51.030;7.024;2023-03-16T15:23:27;5.55;;;1.80;;
72127;SDS011;60000;51.030;7.024;2023-03-16T15:25:54;4.38;;;1.65;;
72127;SDS011;60000;51.030;7.024;2023-03-16T15:28:24;4.95;;;1.80;;
72127;SDS011;60000;51.030;7.024;2023-03-16T15:30:54;4.35;;;1.80;;
72127;SDS011;60000;51.030;7.024;2023-03-16T15:33:21;6.25;;;2.15;;
72127;SDS011;60000;51.030;7.024;2023-03-16T15:35:47;5.13;;;1.90;;
72127;SDS011;60000;51.030;7.024;2023-03-16T15:38:15;5.80;;;1.60;;
72127;SDS011;60000;51.030;7.024;2023-03-16T15:40:44;5.40;;;1.75;;
72127;SDS011;60000;51.030;7.024;2023-03-16T15:43:12;4.93;;;2.08;;
72127;SDS011;60000;51.030;7.024;2023-03-16T15:45:39;4.68;;;1.50;;
72127;SDS011;60000;51.030;7.024;2023-03-16T15:48:05;7.63;;;2.10;;
72127;SDS011;60000;51.030;7.024;2023-03-16T15:50:30;7.78;;;2.55;;
72127;SDS011;60000;51.030;7.024;2023-03-16T15:52:58;6.70;;;1.87;;
72127;SDS011;60000;51.030;7.024;2023-03-16T15:55:39;5.72;;;1.75;;
72127;SDS011;60000;51.030;7.024;2023-03-16T15:58:09;4.72;;;1.85;;
72127;SDS011;60000;51.030;7.024;2023-03-16T16:00:42;4.55;;;1.90;;